createdAt,value
2022-09-20T00:01:37.435Z,100660.44
2022-09-20T00:04:06.371Z,100663.91
2022-09-20T00:06:34.983Z,100664.06
2022-09-20T00:09:04.269Z,100667.34
2022-09-20T00:11:33.266Z,100658.13
2022-09-20T00:14:02.505Z,100663.16
2022-09-20T00:16:32.660Z,100660.47
2022-09-20T00:19:02.038Z,100663.63
2022-09-20T00:21:30.830Z,100665.47
2022-09-20T00:23:59.459Z,100660.69
2022-09-20T00:26:28.103Z,100659.34
2022-09-20T00:28:56.539Z,100657.88
2022-09-20T00:31:24.453Z,100664.63
2022-09-20T00:34:12.926Z,100664.50
2022-09-20T00:36:40.906Z,100672.72
2022-09-20T00:39:08.899Z,100670.03
2022-09-20T00:41:36.900Z,100675.44
2022-09-20T00:44:24.590Z,100669.03
2022-09-20T00:46:52.608Z,100676.50
2022-09-20T00:49:23.309Z,100683.13
2022-09-20T00:51:56.441Z,100684.00
2022-09-20T00:54:25.709Z,100683.97
2022-09-20T00:56:53.700Z,100689.34
2022-09-20T00:59:23.920Z,100682.09
2022-09-20T01:01:55.416Z,100689.28
2022-09-20T01:04:25.575Z,100689.22
2022-09-20T01:06:55.785Z,100694.34
2022-09-20T01:09:23.788Z,100689.38
2022-09-20T01:11:53.228Z,100694.19
2022-09-20T01:14:23.319Z,100686.44
2022-09-20T01:16:52.622Z,100679.78
2022-09-20T01:19:36.818Z,100690.16
2022-09-20T01:22:07.279Z,100697.59
2022-09-20T01:24:35.179Z,100703.97
2022-09-20T01:27:06.139Z,100709.78
2022-09-20T01:29:43.146Z,100707.22
2022-09-20T01:32:13.914Z,100712.94
2022-09-20T01:35:01.070Z,100712.56
2022-09-20T01:37:33.224Z,100720.19
2022-09-20T01:40:13.455Z,100721.50
2022-09-20T01:43:03.905Z,100717.97
2022-09-20T01:45:33.311Z,100724.53
2022-09-20T01:48:04.271Z,100726.56
2022-09-20T01:50:50.508Z,100721.28
2022-09-20T01:53:18.500Z,100723.13
2022-09-20T01:56:04.680Z,100724.19
2022-09-20T01:58:32.600Z,100723.66
2022-09-20T02:01:00.613Z,100728.50
2022-09-20T02:03:40.881Z,100734.34
2022-09-20T02:06:27.305Z,100738.22
2022-09-20T02:09:13.384Z,100744.78
2022-09-20T02:11:47.440Z,100739.00
2022-09-20T02:14:24.584Z,100746.19
2022-09-20T02:17:14.007Z,100752.75
2022-09-20T02:19:58.199Z,100755.03
2022-09-20T02:22:35.312Z,100754.47
2022-09-20T02:25:09.219Z,100748.47
2022-09-20T02:27:46.159Z,100750.59
2022-09-20T02:30:32.705Z,100756.19
2022-09-20T02:33:25.394Z,100756.31
2022-09-20T02:36:02.837Z,100766.41
2022-09-20T02:38:49.224Z,100763.28
2022-09-20T02:41:37.178Z,100767.22
2022-09-20T02:44:14.719Z,100768.47
2022-09-20T02:46:46.840Z,100770.50
2022-09-20T02:49:14.799Z,100776.13
2022-09-20T02:51:48.819Z,100778.13
2022-09-20T02:54:32.099Z,100789.00
2022-09-20T02:57:04.880Z,100784.56
2022-09-20T02:59:32.756Z,100781.13
2022-09-20T03:02:12.642Z,100778.56
2022-09-20T03:04:43.630Z,100790.28
2022-09-20T03:07:14.345Z,100792.63
2022-09-20T03:09:48.395Z,100797.31
2022-09-20T03:12:28.559Z,100799.25
2022-09-20T03:15:16.579Z,100811.06
2022-09-20T03:17:50.184Z,100810.19
2022-09-20T03:20:36.594Z,100817.50
2022-09-20T03:23:23.035Z,100822.88
2022-09-20T03:25:50.979Z,100825.75
2022-09-20T03:28:51.001Z,100828.84
2022-09-20T03:31:28.699Z,100824.84
2022-09-20T03:34:14.824Z,100827.81
2022-09-20T03:37:01.040Z,100830.69
2022-09-20T03:39:44.224Z,100834.75
2022-09-20T03:42:24.440Z,100836.88
2022-09-20T03:45:10.433Z,100835.44
2022-09-20T03:47:56.540Z,100855.09
2022-09-20T03:50:36.419Z,100849.03
2022-09-20T03:53:33.365Z,100852.94
2022-09-20T03:56:16.380Z,100863.78
2022-09-20T03:58:56.580Z,100856.78
2022-09-20T04:01:33.936Z,100858.50
2022-09-20T04:04:20.268Z,100863.97
2022-09-20T04:07:06.504Z,100861.41
2022-09-20T04:09:48.429Z,100866.84
2022-09-20T04:12:35.000Z,100866.94
2022-09-20T04:15:21.864Z,100873.47
2022-09-20T04:18:07.943Z,100868.94
2022-09-20T04:20:41.499Z,100871.16
2022-09-20T04:23:21.870Z,100875.56
2022-09-20T04:25:52.419Z,100872.78
2022-09-20T04:28:28.105Z,100874.59
2022-09-20T04:31:00.475Z,100879.13
2022-09-20T04:33:31.187Z,100879.28
2022-09-20T04:36:31.311Z,100880.38
2022-09-20T04:39:02.631Z,100889.44
2022-09-20T04:41:36.539Z,100884.19
2022-09-20T04:44:17.381Z,100887.84
2022-09-20T04:46:45.384Z,100890.69
2022-09-20T04:49:16.545Z,100901.72
2022-09-20T04:51:55.945Z,100902.09
2022-09-20T04:54:42.524Z,100907.44
2022-09-20T04:57:10.481Z,100917.06
2022-09-20T04:59:54.679Z,100908.03
2022-09-20T05:02:22.746Z,100916.09
2022-09-20T05:05:03.463Z,100917.81
2022-09-20T05:07:51.139Z,100912.44
2022-09-20T05:10:35.144Z,100916.25
2022-09-20T05:13:06.344Z,100921.84
2022-09-20T05:15:51.794Z,100922.88
2022-09-20T05:18:34.190Z,100922.97
2022-09-20T05:21:40.264Z,100931.88
2022-09-20T05:24:28.540Z,100930.06
2022-09-20T05:27:02.944Z,100936.47
2022-09-20T05:29:39.800Z,100936.56
2022-09-20T05:32:13.641Z,100940.38
2022-09-20T05:34:47.779Z,100937.03
2022-09-20T05:37:34.180Z,100935.28
2022-09-20T05:40:23.778Z,100931.94
2022-09-20T05:43:12.293Z,100930.38
2022-09-20T05:45:46.381Z,100936.97
2022-09-20T05:48:33.401Z,100941.53
2022-09-20T05:51:16.635Z,100950.66
2022-09-20T05:54:07.677Z,100954.47
2022-09-20T05:56:43.259Z,100954.63
2022-09-20T05:59:12.435Z,100946.84
2022-09-20T06:01:47.000Z,100952.44
2022-09-20T06:04:21.714Z,100956.25
2022-09-20T06:06:52.739Z,100955.63
2022-09-20T06:09:29.764Z,100956.00
2022-09-20T06:12:10.039Z,100954.34
2022-09-20T06:14:38.020Z,100957.22
2022-09-20T06:17:12.060Z,100960.00
2022-09-20T06:19:58.659Z,100961.88
2022-09-20T06:22:29.663Z,100963.00
2022-09-20T06:25:00.420Z,100966.03
2022-09-20T06:27:35.464Z,100971.53
2022-09-20T06:30:06.735Z,100967.28
2022-09-20T06:32:35.789Z,100978.19
2022-09-20T06:35:04.218Z,100972.91
2022-09-20T06:37:50.504Z,100975.69
2022-09-20T06:40:50.925Z,100986.66
2022-09-20T06:43:20.269Z,100977.91
2022-09-20T06:45:49.578Z,100987.16
2022-09-20T06:48:17.677Z,100991.03
2022-09-20T06:50:46.319Z,100988.59
2022-09-20T06:53:19.021Z,100995.88
2022-09-20T06:55:47.480Z,100982.72
2022-09-20T06:58:15.944Z,100990.81
2022-09-20T07:00:43.975Z,100990.91
2022-09-20T07:03:14.065Z,100990.19
2022-09-20T07:05:42.039Z,100990.44
2022-09-20T07:08:10.025Z,100991.38
2022-09-20T07:10:37.914Z,100992.47
2022-09-20T07:13:06.827Z,100996.25
2022-09-20T07:15:35.609Z,100996.41
2022-09-20T07:18:03.600Z,100988.38
2022-09-20T07:20:31.620Z,100984.13
2022-09-20T07:23:01.681Z,100993.34
2022-09-20T07:25:29.979Z,100988.06
2022-09-20T07:27:58.450Z,100986.34
2022-09-20T07:30:27.002Z,100989.25
2022-09-20T07:32:54.962Z,100995.78
2022-09-20T07:35:23.470Z,100987.13
2022-09-20T07:37:57.519Z,100993.50
2022-09-20T07:40:28.303Z,100986.50
2022-09-20T07:42:58.022Z,100992.00
2022-09-20T07:45:26.342Z,100997.44
2022-09-20T07:47:55.622Z,100986.88
2022-09-20T07:50:23.599Z,100994.13
2022-09-20T07:52:51.579Z,100993.41
2022-09-20T07:55:19.628Z,100989.97
2022-09-20T07:57:47.620Z,100992.78
2022-09-20T08:00:15.785Z,100984.91
2022-09-20T08:02:43.757Z,100986.09
2022-09-20T08:05:11.945Z,100996.97
2022-09-20T08:07:40.405Z,100997.97
2022-09-20T08:10:08.747Z,100990.88
2022-09-20T08:15:26.663Z,100997.31
2022-09-20T08:17:54.508Z,101000.09
2022-09-20T08:20:22.489Z,100994.88
2022-09-20T08:23:12.543Z,100994.09
2022-09-20T08:25:39.288Z,100993.38
2022-09-20T08:28:07.300Z,100997.03
2022-09-20T08:30:35.262Z,100999.91
2022-09-20T08:33:04.700Z,101005.38
2022-09-20T08:35:32.584Z,101000.22
2022-09-20T08:40:52.605Z,100996.81
2022-09-20T08:43:22.404Z,100995.00
2022-09-20T08:45:50.855Z,100995.09
2022-09-20T08:48:19.151Z,101001.31
2022-09-20T08:50:47.146Z,100997.03
2022-09-20T08:53:21.510Z,100997.84
2022-09-20T08:55:49.872Z,100999.56
2022-09-20T08:58:19.601Z,100998.84
2022-09-20T09:00:48.473Z,100997.25
2022-09-20T09:03:20.039Z,101006.34
2022-09-20T09:05:49.871Z,101008.34
2022-09-20T09:08:22.822Z,101008.47
2022-09-20T09:10:55.723Z,101013.16
2022-09-20T09:13:29.294Z,101015.09
2022-09-20T09:15:59.944Z,101021.53
2022-09-20T09:18:32.399Z,101016.38
2022-09-20T09:21:01.225Z,101018.38
2022-09-20T09:23:30.142Z,101006.00
2022-09-20T09:26:04.097Z,101015.91
2022-09-20T09:28:37.820Z,101011.63
2022-09-20T09:31:16.922Z,101013.50
2022-09-20T09:33:48.429Z,101018.03
2022-09-20T09:36:24.429Z,101013.66
2022-09-20T09:38:53.229Z,101011.91
2022-09-20T09:41:27.299Z,101003.00
2022-09-20T09:44:11.439Z,101010.13
2022-09-20T09:46:41.225Z,101010.97
2022-09-20T09:49:23.144Z,101013.69
2022-09-20T09:52:03.307Z,101017.38
2022-09-20T09:54:38.820Z,101013.97
2022-09-20T09:57:16.902Z,101015.06
2022-09-20T09:59:52.867Z,101019.63
2022-09-20T10:02:20.806Z,101017.16
2022-09-20T10:05:01.069Z,101011.94
2022-09-20T10:07:47.749Z,101018.22
2022-09-20T10:10:24.752Z,101014.75
2022-09-20T10:12:56.096Z,101019.28
2022-09-20T10:15:33.520Z,101024.78
2022-09-20T10:18:04.264Z,101022.22
2022-09-20T10:20:32.269Z,101020.50
2022-09-20T10:23:34.852Z,101023.22
2022-09-20T10:25:51.781Z,101019.69
2022-09-20T10:28:23.146Z,101020.50
2022-09-20T10:30:53.398Z,101032.78
2022-09-20T10:33:21.381Z,101025.56
2022-09-20T10:35:53.459Z,101030.63
2022-09-20T10:38:24.540Z,101018.66
2022-09-20T10:41:10.547Z,101024.47
2022-09-20T10:44:05.767Z,101018.03
2022-09-20T10:46:54.555Z,101018.78
2022-09-20T10:49:25.795Z,101023.19
2022-09-20T10:51:56.674Z,101024.81
2022-09-20T10:54:24.624Z,101029.25
2022-09-20T10:56:53.985Z,101024.81
2022-09-20T10:59:28.039Z,101019.47
2022-09-20T11:02:02.231Z,101017.84
2022-09-20T11:04:38.969Z,101025.13
2022-09-20T11:07:13.059Z,101025.28
2022-09-20T11:09:58.313Z,101019.25
2022-09-20T11:12:35.329Z,101017.69
2022-09-20T11:15:09.730Z,101021.34
2022-09-20T11:17:43.161Z,101010.09
2022-09-20T11:20:21.614Z,101011.19
2022-09-20T11:23:01.032Z,101016.78
2022-09-20T11:25:37.699Z,101023.19
2022-09-20T11:28:12.426Z,101017.97
2022-09-20T11:30:50.679Z,101021.69
2022-09-20T11:33:36.966Z,101017.41
2022-09-20T11:36:10.809Z,101012.16
2022-09-20T11:38:50.925Z,101021.19
2022-09-20T11:41:26.839Z,101020.44
2022-09-20T11:43:56.919Z,101025.06
2022-09-20T11:46:45.073Z,101009.28
2022-09-20T11:49:19.099Z,101011.13
2022-09-20T11:52:02.184Z,101012.13
2022-09-20T11:54:55.639Z,101013.19
2022-09-20T11:57:24.267Z,101009.72
2022-09-20T11:59:57.250Z,101013.38
2022-09-20T12:02:33.092Z,101014.53
2022-09-20T12:05:02.836Z,101013.78
2022-09-20T12:07:36.064Z,101012.84
2022-09-20T12:10:24.120Z,101012.03
2022-09-20T12:12:57.234Z,101021.09
2022-09-20T12:15:31.160Z,101016.75
2022-09-20T12:17:59.154Z,101009.75
2022-09-20T12:20:36.274Z,101017.00
2022-09-20T12:23:22.669Z,101015.47
2022-09-20T12:26:01.717Z,101019.97
2022-09-20T12:28:42.985Z,101022.78
2022-09-20T12:31:20.265Z,101022.91
2022-09-20T12:34:04.708Z,101015.97
2022-09-20T12:36:35.144Z,101015.16
2022-09-20T12:39:13.070Z,101017.94
2022-09-20T12:41:52.597Z,101017.19
2022-09-20T12:44:52.744Z,101018.09
2022-09-20T12:47:25.071Z,101009.16
2022-09-20T12:50:12.422Z,101018.88
2022-09-20T12:52:52.077Z,101019.81
2022-09-20T12:55:29.179Z,101014.50
2022-09-20T12:57:59.422Z,101013.81
2022-09-20T13:00:32.982Z,101014.88
2022-09-20T13:03:02.141Z,101022.03
2022-09-20T13:05:39.160Z,101022.91
2022-09-20T13:08:27.311Z,101024.69
2022-09-20T13:11:01.881Z,101027.50
2022-09-20T13:13:35.120Z,101023.09
2022-09-20T13:16:06.763Z,101022.28
2022-09-20T13:18:36.699Z,101030.34
2022-09-20T13:21:08.109Z,101026.00
2022-09-20T13:23:46.361Z,101033.13
2022-09-20T13:26:15.944Z,101027.88
2022-09-20T13:28:55.284Z,101036.81
2022-09-20T13:31:23.179Z,101048.50
2022-09-20T13:33:51.798Z,101046.81
2022-09-20T13:36:28.270Z,101046.94
2022-09-20T13:38:57.667Z,101051.38
2022-09-20T13:41:28.859Z,101051.38
2022-09-20T13:43:57.555Z,101056.84
2022-09-20T13:46:30.028Z,101054.25
2022-09-20T13:49:14.320Z,101054.31
2022-09-20T13:51:42.210Z,101051.59
2022-09-20T13:54:20.879Z,101044.53
2022-09-20T13:56:49.041Z,101044.59
2022-09-20T13:59:20.419Z,101050.81
2022-09-20T14:01:52.874Z,101049.09
2022-09-20T14:04:29.111Z,101046.31
2022-09-20T14:06:58.626Z,101050.66
2022-09-20T14:09:32.540Z,101055.09
2022-09-20T14:12:01.220Z,101050.50
2022-09-20T14:14:29.930Z,101049.78
2022-09-20T14:16:59.031Z,101051.59
2022-09-20T14:19:31.304Z,101058.63
2022-09-20T14:22:00.785Z,101061.31
2022-09-20T14:24:33.319Z,101063.09
2022-09-20T14:27:21.389Z,101065.75
2022-09-20T14:29:50.344Z,101069.13
2022-09-20T14:32:18.301Z,101072.50
2022-09-20T14:35:15.259Z,101066.13
2022-09-20T14:37:52.559Z,101070.25
2022-09-20T14:40:28.221Z,101073.59
2022-09-20T14:42:58.506Z,101079.56
2022-09-20T14:45:32.598Z,101078.56
2022-09-20T14:48:09.538Z,101083.78
2022-09-20T14:50:40.379Z,101090.66
2022-09-20T14:53:11.954Z,101085.94
2022-09-20T14:56:00.109Z,101087.47
2022-09-20T14:58:28.515Z,101086.25
2022-09-20T15:01:07.864Z,101089.59
2022-09-20T15:03:40.900Z,101086.72
2022-09-20T15:06:12.744Z,101084.56
2022-09-20T15:08:45.475Z,101085.06
2022-09-20T15:11:17.835Z,101089.09
2022-09-20T15:13:46.177Z,101080.75
2022-09-20T15:16:14.870Z,101083.00
2022-09-20T15:18:43.787Z,101078.88
2022-09-20T15:21:12.327Z,101081.03
2022-09-20T15:23:40.903Z,101084.03
2022-09-20T15:26:11.619Z,101084.19
2022-09-20T15:28:39.580Z,101082.63
2022-09-20T15:31:07.643Z,101085.59
2022-09-20T15:33:35.800Z,101082.56
2022-09-20T15:36:06.510Z,101089.19
2022-09-20T15:38:34.504Z,101087.94
2022-09-20T15:41:06.985Z,101092.13
2022-09-20T15:43:34.997Z,101096.13
2022-09-20T15:46:17.864Z,101087.66
2022-09-20T15:48:45.839Z,101086.31
2022-09-20T15:51:14.344Z,101091.31
2022-09-20T15:53:45.704Z,101088.41
2022-09-20T15:56:22.196Z,101088.03
2022-09-20T15:58:51.419Z,101090.41
2022-09-20T16:01:20.499Z,101090.09
2022-09-20T16:03:48.590Z,101093.25
2022-09-20T16:06:16.488Z,101092.94
2022-09-20T16:08:44.944Z,101085.47
2022-09-20T16:11:21.738Z,101099.28
2022-09-20T16:13:54.659Z,101093.44
2022-09-20T16:16:23.088Z,101098.41
2022-09-20T16:19:09.698Z,101097.16
2022-09-20T16:21:41.839Z,101106.50
2022-09-20T16:24:10.942Z,101109.66
2022-09-20T16:26:39.420Z,101105.84
2022-09-20T16:29:10.500Z,101108.38
2022-09-20T16:31:40.841Z,101111.59
2022-09-20T16:34:22.344Z,101113.88
2022-09-20T16:36:56.584Z,101111.72
2022-09-20T16:39:28.746Z,101105.00
2022-09-20T16:41:58.657Z,101108.19
2022-09-20T16:44:26.647Z,101115.78
2022-09-20T16:46:54.503Z,101111.88
2022-09-20T16:49:22.501Z,101113.44
2022-09-20T16:51:50.514Z,101116.59
2022-09-20T16:54:18.979Z,101110.72
2022-09-20T16:56:48.079Z,101103.09
2022-09-20T16:59:17.340Z,101105.31
2022-09-20T17:01:46.160Z,101105.06
2022-09-20T17:04:18.708Z,101101.00
2022-09-20T17:06:47.149Z,101105.75
2022-09-20T17:09:15.784Z,101098.22
2022-09-20T17:11:46.817Z,101103.03
2022-09-20T17:14:15.940Z,101107.94
2022-09-20T17:16:44.539Z,101100.25
2022-09-20T17:19:14.338Z,101105.28
2022-09-20T17:21:51.360Z,101103.84
2022-09-20T17:24:20.660Z,101095.22
2022-09-20T17:26:48.741Z,101101.75
2022-09-20T17:29:18.507Z,101103.03
2022-09-20T17:31:53.164Z,101100.47
2022-09-20T17:34:22.845Z,101095.47
2022-09-20T17:36:51.784Z,101105.00
2022-09-20T17:39:19.779Z,101096.53
2022-09-20T17:41:48.860Z,101090.13
2022-09-20T17:44:17.545Z,101089.25
2022-09-20T17:46:46.572Z,101088.03
2022-09-20T17:49:15.802Z,101093.13
2022-09-20T17:51:44.910Z,101087.16
2022-09-20T17:54:14.683Z,101087.78
2022-09-20T17:56:44.424Z,101093.00
2022-09-20T17:59:13.064Z,101085.03
2022-09-20T18:01:43.659Z,101087.22
2022-09-20T18:04:12.379Z,101083.38
2022-09-20T18:06:44.439Z,101093.97
2022-09-20T18:09:13.389Z,101085.56
2022-09-20T18:11:51.609Z,101088.69
2022-09-20T18:14:21.339Z,101090.16
2022-09-20T18:16:49.542Z,101085.63
2022-09-20T18:19:17.459Z,101092.84
2022-09-20T18:21:45.554Z,101094.47
2022-09-20T18:24:13.388Z,101090.84
2022-09-20T18:26:42.079Z,101086.47
2022-09-20T18:29:12.456Z,101087.25
2022-09-20T18:31:46.293Z,101086.00
2022-09-20T18:34:19.070Z,101087.59
2022-09-20T18:36:49.379Z,101084.91
2022-09-20T18:39:17.479Z,101079.72
2022-09-20T18:41:45.879Z,101079.16
2022-09-20T18:44:15.324Z,101078.84
2022-09-20T18:46:43.343Z,101073.13
2022-09-20T18:49:14.620Z,101072.81
2022-09-20T18:51:43.137Z,101072.69
2022-09-20T18:54:11.643Z,101072.50
2022-09-20T18:56:40.879Z,101077.34
2022-09-20T18:59:14.459Z,101077.34
2022-09-20T19:01:45.207Z,101076.25
2022-09-20T19:04:31.939Z,101071.25
2022-09-20T19:07:15.049Z,101068.72
2022-09-20T19:09:42.993Z,101072.75
2022-09-20T19:12:39.960Z,101068.47
2022-09-20T19:15:27.979Z,101071.06
2022-09-20T19:18:08.438Z,101061.94
2022-09-20T19:20:56.435Z,101062.72
2022-09-20T19:23:42.984Z,101061.56
2022-09-20T19:26:11.122Z,101053.69
2022-09-20T19:28:39.399Z,101059.56
2022-09-20T19:31:07.785Z,101054.69
2022-09-20T19:33:36.440Z,101053.03
2022-09-20T19:36:04.745Z,101057.09
2022-09-20T19:38:36.285Z,101054.38
2022-09-20T19:41:18.984Z,101050.53
2022-09-20T19:43:50.359Z,101050.31
2022-09-20T19:46:21.265Z,101059.56
2022-09-20T19:49:09.065Z,101051.44
2022-09-20T19:51:40.904Z,101046.25
2022-09-20T19:54:13.562Z,101049.63
2022-09-20T19:57:01.552Z,101038.22
2022-09-20T19:59:29.725Z,101037.00
2022-09-20T20:01:58.540Z,101037.03
2022-09-20T20:04:26.777Z,101030.41
2022-09-20T20:07:00.399Z,101032.94
2022-09-20T20:09:40.540Z,101031.91
2022-09-20T20:12:31.140Z,101027.97
2022-09-20T20:15:05.224Z,101028.16
2022-09-20T20:17:47.279Z,101026.78
2022-09-20T20:20:31.420Z,101028.34
2022-09-20T20:23:27.743Z,101026.75
2022-09-20T20:26:03.994Z,101019.63
2022-09-20T20:28:31.944Z,101020.88
2022-09-20T20:31:03.186Z,101022.53
2022-09-20T20:33:31.905Z,101025.38
2022-09-20T20:36:01.235Z,101024.25
2022-09-20T20:38:32.412Z,101027.06
2022-09-20T20:41:05.519Z,101019.78
2022-09-20T20:43:35.784Z,101021.31
2022-09-20T20:46:04.145Z,101012.66
2022-09-20T20:48:32.462Z,101010.94
2022-09-20T20:51:03.831Z,101009.41
2022-09-20T20:53:33.233Z,101010.53
2022-09-20T20:56:04.906Z,101001.16
2022-09-20T20:58:37.146Z,100997.69
2022-09-20T21:01:21.574Z,100993.03
2022-09-20T21:03:56.923Z,100987.34
2022-09-20T21:06:26.180Z,100996.66
2022-09-20T21:08:54.180Z,100988.75
2022-09-20T21:11:25.408Z,100990.22
2022-09-20T21:13:54.621Z,100980.09
2022-09-20T21:16:24.109Z,100985.38
2022-09-20T21:18:52.590Z,100979.75
2022-09-20T21:21:22.510Z,100980.81
2022-09-20T21:23:51.779Z,100975.56
2022-09-20T21:26:20.706Z,100974.31
2022-09-20T21:28:55.000Z,100977.53
2022-09-20T21:31:25.106Z,100970.31
2022-09-20T21:33:53.220Z,100968.63
2022-09-20T21:36:22.822Z,100960.69
2022-09-20T21:38:50.975Z,100971.34
2022-09-20T21:41:25.639Z,100972.72
2022-09-20T21:43:54.995Z,100970.66
2022-09-20T21:46:22.847Z,100966.44
2022-09-20T21:48:54.220Z,100963.56
2022-09-20T21:51:24.544Z,100970.47
2022-09-20T21:53:57.542Z,100961.78
2022-09-20T21:56:28.430Z,100968.06
2022-09-20T21:58:56.580Z,100968.81
2022-09-20T22:01:26.052Z,100964.06
2022-09-20T22:03:57.559Z,100964.22
2022-09-20T22:06:30.984Z,100961.78
2022-09-20T22:09:00.078Z,100957.81
2022-09-20T22:11:30.194Z,100954.19
2022-09-20T22:13:58.342Z,100971.91
2022-09-20T22:16:30.301Z,100973.78
2022-09-20T22:18:58.660Z,100976.66
2022-09-20T22:21:27.899Z,100983.41
2022-09-20T22:24:01.225Z,100969.78
2022-09-20T22:26:34.682Z,100966.84
2022-09-20T22:29:03.260Z,100972.78
2022-09-20T22:31:32.192Z,100973.34
2022-09-20T22:34:01.184Z,100975.22
2022-09-20T22:36:30.460Z,100974.84
2022-09-20T22:38:58.477Z,100977.75
2022-09-20T22:41:26.526Z,100984.44
2022-09-20T22:43:54.640Z,100984.63
2022-09-20T22:46:23.982Z,100980.78
2022-09-20T22:48:52.098Z,100980.84
2022-09-20T22:51:21.080Z,100975.59
2022-09-20T22:53:49.639Z,100976.53
2022-09-20T22:56:19.265Z,100971.44
2022-09-20T22:58:49.520Z,100976.41
2022-09-20T23:01:19.282Z,100971.72
2022-09-20T23:03:49.112Z,100971.59
2022-09-20T23:06:21.707Z,100974.31
2022-09-20T23:08:50.519Z,100975.03
2022-09-20T23:11:19.260Z,100972.94
2022-09-20T23:13:47.920Z,100974.91
2022-09-20T23:16:16.000Z,100972.28
2022-09-20T23:18:43.945Z,100969.69
2022-09-20T23:21:12.427Z,100975.03
2022-09-20T23:23:44.105Z,100974.66
2022-09-20T23:26:14.500Z,100979.78
2022-09-20T23:28:43.486Z,100976.06
2022-09-20T23:31:13.349Z,100980.31
2022-09-20T23:33:46.080Z,100980.31
2022-09-20T23:36:14.660Z,100976.53
2022-09-20T23:38:42.644Z,100970.28
2022-09-20T23:41:12.074Z,100971.88
2022-09-20T23:43:40.545Z,100968.81
2022-09-20T23:46:09.219Z,100968.13
2022-09-20T23:48:37.879Z,100971.09
2022-09-20T23:51:07.116Z,100972.69
2022-09-20T23:53:35.619Z,100973.09
2022-09-20T23:56:04.440Z,100979.09
2022-09-20T23:58:32.432Z,100969.63
